sensor_id;sensor_type;location;lat;lon;timestamp;P1;durP1;ratioP1;P2;durP2;ratioP2
25780;SDS011;13626;48.128;11.628;2023-12-20T00:01:04;3.92;;;2.22;;
25780;SDS011;13626;48.128;11.628;2023-12-20T00:03:32;3.55;;;1.92;;
25780;SDS011;13626;48.128;11.628;2023-12-20T00:06:08;2.88;;;1.80;;
25780;SDS011;13626;48.128;11.628;2023-12-20T00:08:35;3.53;;;2.10;;
25780;SDS011;13626;48.128;11.628;2023-12-20T00:11:02;3.05;;;1.90;;
25780;SDS011;13626;48.128;11.628;2023-12-20T00:13:30;3.33;;;2.10;;
25780;SDS011;13626;48.128;11.628;2023-12-20T00:15:58;2.83;;;2.00;;
25780;SDS011;13626;48.128;11.628;2023-12-20T00:18:26;4.25;;;2.78;;
25780;SDS011;13626;48.128;11.628;2023-12-20T00:20:53;3.75;;;2.10;;
25780;SDS011;13626;48.128;11.628;2023-12-20T00:23:20;2.72;;;1.90;;
25780;SDS011;13626;48.128;11.628;2023-12-20T00:25:49;3.05;;;2.10;;
25780;SDS011;13626;48.128;11.628;2023-12-20T00:28:16;4.38;;;2.50;;
25780;SDS011;13626;48.128;11.628;2023-12-20T00:30:44;4.65;;;2.45;;
25780;SDS011;13626;48.128;11.628;2023-12-20T00:33:11;3.47;;;2.28;;
25780;SDS011;13626;48.128;11.628;2023-12-20T00:35:39;3.05;;;2.10;;
25780;SDS011;13626;48.128;11.628;2023-12-20T00:38:06;3.70;;;2.30;;
25780;SDS011;13626;48.128;11.628;2023-12-20T00:40:34;2.85;;;2.10;;
25780;SDS011;13626;48.128;11.628;2023-12-20T00:43:02;1.98;;;1.73;;
25780;SDS011;13626;48.128;11.628;2023-12-20T00:45:29;2.53;;;1.95;;
25780;SDS011;13626;48.128;11.628;2023-12-20T00:47:56;2.75;;;1.95;;
25780;SDS011;13626;48.128;11.628;2023-12-20T00:50:25;2.28;;;1.48;;
25780;SDS011;13626;48.128;11.628;2023-12-20T00:52:55;2.38;;;1.70;;
25780;SDS011;13626;48.128;11.628;2023-12-20T00:55:23;4.13;;;1.90;;
25780;SDS011;13626;48.128;11.628;2023-12-20T00:57:50;2.63;;;1.60;;
25780;SDS011;13626;48.128;11.628;2023-12-20T01:00:17;2.97;;;1.60;;
25780;SDS011;13626;48.128;11.628;2023-12-20T01:02:44;2.25;;;1.60;;
25780;SDS011;13626;48.128;11.628;2023-12-20T01:05:15;2.28;;;1.75;;
25780;SDS011;13626;48.128;11.628;2023-12-20T01:07:43;4.97;;;1.83;;
25780;SDS011;13626;48.128;11.628;2023-12-20T01:10:11;1.80;;;1.50;;
25780;SDS011;13626;48.128;11.628;2023-12-20T01:12:38;2.20;;;1.60;;
25780;SDS011;13626;48.128;11.628;2023-12-20T01:15:07;3.17;;;1.65;;
25780;SDS011;13626;48.128;11.628;2023-12-20T01:17:34;2.53;;;1.50;;
25780;SDS011;13626;48.128;11.628;2023-12-20T01:20:02;1.58;;;1.27;;
25780;SDS011;13626;48.128;11.628;2023-12-20T01:22:29;7.20;;;1.88;;
25780;SDS011;13626;48.128;11.628;2023-12-20T01:24:56;2.03;;;1.77;;
25780;SDS011;13626;48.128;11.628;2023-12-20T01:27:24;2.30;;;1.52;;
25780;SDS011;13626;48.128;11.628;2023-12-20T01:29:51;1.63;;;1.35;;
25780;SDS011;13626;48.128;11.628;2023-12-20T01:32:21;3.00;;;1.25;;
25780;SDS011;13626;48.128;11.628;2023-12-20T01:34:48;3.10;;;1.45;;
25780;SDS011;13626;48.128;11.628;2023-12-20T01:37:16;1.88;;;1.60;;
25780;SDS011;13626;48.128;11.628;2023-12-20T01:39:43;1.75;;;1.30;;
25780;SDS011;13626;48.128;11.628;2023-12-20T01:42:10;1.60;;;1.20;;
25780;SDS011;13626;48.128;11.628;2023-12-20T01:44:38;2.13;;;1.35;;
25780;SDS011;13626;48.128;11.628;2023-12-20T01:47:05;2.17;;;1.30;;
25780;SDS011;13626;48.128;11.628;2023-12-20T01:49:32;1.30;;;1.10;;
25780;SDS011;13626;48.128;11.628;2023-12-20T01:52:00;2.58;;;1.52;;
25780;SDS011;13626;48.128;11.628;2023-12-20T01:54:27;2.28;;;1.42;;
25780;SDS011;13626;48.128;11.628;2023-12-20T01:56:54;1.52;;;1.20;;
25780;SDS011;13626;48.128;11.628;2023-12-20T01:59:22;1.10;;;1.00;;
25780;SDS011;13626;48.128;11.628;2023-12-20T02:01:49;1.55;;;1.10;;
25780;SDS011;13626;48.128;11.628;2023-12-20T02:04:17;2.35;;;1.27;;
25780;SDS011;13626;48.128;11.628;2023-12-20T02:06:44;2.40;;;1.23;;
25780;SDS011;13626;48.128;11.628;2023-12-20T02:09:14;1.10;;;0.98;;
25780;SDS011;13626;48.128;11.628;2023-12-20T02:11:41;1.50;;;1.25;;
25780;SDS011;13626;48.128;11.628;2023-12-20T02:14:09;1.65;;;1.27;;
25780;SDS011;13626;48.128;11.628;2023-12-20T02:16:36;1.45;;;1.00;;
25780;SDS011;13626;48.128;11.628;2023-12-20T02:19:04;1.15;;;0.88;;
25780;SDS011;13626;48.128;11.628;2023-12-20T02:21:33;1.05;;;0.95;;
25780;SDS011;13626;48.128;11.628;2023-12-20T02:24:01;1.67;;;1.10;;
25780;SDS011;13626;48.128;11.628;2023-12-20T02:26:28;1.45;;;1.15;;
25780;SDS011;13626;48.128;11.628;2023-12-20T02:28:56;1.60;;;0.90;;
25780;SDS011;13626;48.128;11.628;2023-12-20T02:31:23;1.08;;;0.90;;
25780;SDS011;13626;48.128;11.628;2023-12-20T02:33:50;1.08;;;0.98;;
25780;SDS011;13626;48.128;11.628;2023-12-20T02:36:18;2.25;;;0.77;;
25780;SDS011;13626;48.128;11.628;2023-12-20T02:38:45;1.23;;;0.90;;
25780;SDS011;13626;48.128;11.628;2023-12-20T02:41:13;1.10;;;0.98;;
25780;SDS011;13626;48.128;11.628;2023-12-20T02:43:43;1.65;;;0.85;;
25780;SDS011;13626;48.128;11.628;2023-12-20T02:46:10;1.00;;;0.80;;
25780;SDS011;13626;48.128;11.628;2023-12-20T02:48:37;2.60;;;0.80;;
25780;SDS011;13626;48.128;11.628;2023-12-20T02:51:05;0.93;;;0.70;;
25780;SDS011;13626;48.128;11.628;2023-12-20T02:53:32;0.60;;;0.60;;
25780;SDS011;13626;48.128;11.628;2023-12-20T02:55:59;2.40;;;0.90;;
25780;SDS011;13626;48.128;11.628;2023-12-20T02:58:27;1.98;;;0.70;;
25780;SDS011;13626;48.128;11.628;2023-12-20T03:00:54;0.80;;;0.65;;
25780;SDS011;13626;48.128;11.628;2023-12-20T03:03:21;0.80;;;0.77;;
25780;SDS011;13626;48.128;11.628;2023-12-20T03:05:49;2.35;;;0.80;;
25780;SDS011;13626;48.128;11.628;2023-12-20T03:08:16;0.90;;;0.80;;
25780;SDS011;13626;48.128;11.628;2023-12-20T03:10:43;1.05;;;0.70;;
25780;SDS011;13626;48.128;11.628;2023-12-20T03:13:10;1.75;;;0.75;;
25780;SDS011;13626;48.128;11.628;2023-12-20T03:15:38;1.92;;;0.70;;
25780;SDS011;13626;48.128;11.628;2023-12-20T03:18:05;0.80;;;0.80;;
25780;SDS011;13626;48.128;11.628;2023-12-20T03:20:32;1.15;;;0.88;;
25780;SDS011;13626;48.128;11.628;2023-12-20T03:23:00;1.08;;;0.90;;
25780;SDS011;13626;48.128;11.628;2023-12-20T03:25:27;0.73;;;0.70;;
25780;SDS011;13626;48.128;11.628;2023-12-20T03:27:56;0.70;;;0.60;;
25780;SDS011;13626;48.128;11.628;2023-12-20T03:30:23;1.90;;;0.80;;
25780;SDS011;13626;48.128;11.628;2023-12-20T03:32:50;1.30;;;1.02;;
25780;SDS011;13626;48.128;11.628;2023-12-20T03:35:18;1.95;;;1.20;;
25780;SDS011;13626;48.128;11.628;2023-12-20T03:37:46;1.40;;;1.00;;
25780;SDS011;13626;48.128;11.628;2023-12-20T03:40:14;1.30;;;0.82;;
25780;SDS011;13626;48.128;11.628;2023-12-20T03:42:41;4.97;;;0.80;;
25780;SDS011;13626;48.128;11.628;2023-12-20T03:45:08;2.78;;;0.63;;
25780;SDS011;13626;48.128;11.628;2023-12-20T03:47:36;3.70;;;0.85;;
25780;SDS011;13626;48.128;11.628;2023-12-20T03:50:03;0.47;;;0.47;;
25780;SDS011;13626;48.128;11.628;2023-12-20T03:52:30;1.05;;;0.60;;
25780;SDS011;13626;48.128;11.628;2023-12-20T03:54:58;0.60;;;0.60;;
25780;SDS011;13626;48.128;11.628;2023-12-20T03:57:25;0.68;;;0.65;;
25780;SDS011;13626;48.128;11.628;2023-12-20T03:59:52;1.25;;;0.90;;
25780;SDS011;13626;48.128;11.628;2023-12-20T04:02:20;1.08;;;0.88;;
25780;SDS011;13626;48.128;11.628;2023-12-20T04:04:47;2.85;;;0.63;;
25780;SDS011;13626;48.128;11.628;2023-12-20T04:07:14;2.33;;;0.60;;
25780;SDS011;13626;48.128;11.628;2023-12-20T04:09:41;1.05;;;1.05;;
25780;SDS011;13626;48.128;11.628;2023-12-20T04:12:09;0.63;;;0.40;;
25780;SDS011;13626;48.128;11.628;2023-12-20T04:14:36;0.57;;;0.50;;
25780;SDS011;13626;48.128;11.628;2023-12-20T04:17:03;1.10;;;0.50;;
25780;SDS011;13626;48.128;11.628;2023-12-20T04:19:30;0.60;;;0.57;;
25780;SDS011;13626;48.128;11.628;2023-12-20T04:21:58;1.05;;;0.70;;
25780;SDS011;13626;48.128;11.628;2023-12-20T04:24:25;0.68;;;0.50;;
25780;SDS011;13626;48.128;11.628;2023-12-20T04:26:52;1.88;;;0.73;;
25780;SDS011;13626;48.128;11.628;2023-12-20T04:29:19;0.95;;;0.70;;
25780;SDS011;13626;48.128;11.628;2023-12-20T04:31:47;1.30;;;0.57;;
25780;SDS011;13626;48.128;11.628;2023-12-20T04:34:14;1.25;;;0.73;;
25780;SDS011;13626;48.128;11.628;2023-12-20T04:36:42;1.00;;;0.77;;
25780;SDS011;13626;48.128;11.628;2023-12-20T04:39:09;1.30;;;0.80;;
25780;SDS011;13626;48.128;11.628;2023-12-20T04:41:37;0.70;;;0.63;;
25780;SDS011;13626;48.128;11.628;2023-12-20T04:44:04;0.90;;;0.90;;
25780;SDS011;13626;48.128;11.628;2023-12-20T04:46:31;2.25;;;0.90;;
25780;SDS011;13626;48.128;11.628;2023-12-20T04:48:58;0.70;;;0.70;;
25780;SDS011;13626;48.128;11.628;2023-12-20T04:51:26;0.85;;;0.75;;
25780;SDS011;13626;48.128;11.628;2023-12-20T04:53:53;0.60;;;0.60;;
25780;SDS011;13626;48.128;11.628;2023-12-20T04:56:21;1.23;;;0.80;;
25780;SDS011;13626;48.128;11.628;2023-12-20T04:58:48;0.93;;;0.80;;
25780;SDS011;13626;48.128;11.628;2023-12-20T05:01:15;1.20;;;0.75;;
25780;SDS011;13626;48.128;11.628;2023-12-20T05:03:43;0.77;;;0.75;;
25780;SDS011;13626;48.128;11.628;2023-12-20T05:06:11;1.17;;;1.00;;
25780;SDS011;13626;48.128;11.628;2023-12-20T05:08:38;0.90;;;0.90;;
25780;SDS011;13626;48.128;11.628;2023-12-20T05:11:05;3.08;;;1.30;;
25780;SDS011;13626;48.128;11.628;2023-12-20T05:13:33;1.58;;;1.30;;
25780;SDS011;13626;48.128;11.628;2023-12-20T05:16:12;1.65;;;1.40;;
25780;SDS011;13626;48.128;11.628;2023-12-20T05:18:45;2.58;;;1.58;;
25780;SDS011;13626;48.128;11.628;2023-12-20T05:21:12;3.00;;;1.58;;
25780;SDS011;13626;48.128;11.628;2023-12-20T05:23:39;1.80;;;1.40;;
25780;SDS011;13626;48.128;11.628;2023-12-20T05:26:07;1.40;;;1.30;;
25780;SDS011;13626;48.128;11.628;2023-12-20T05:28:34;2.67;;;1.60;;
25780;SDS011;13626;48.128;11.628;2023-12-20T05:31:01;2.08;;;1.83;;
25780;SDS011;13626;48.128;11.628;2023-12-20T05:33:29;1.85;;;1.60;;
25780;SDS011;13626;48.128;11.628;2023-12-20T05:35:58;1.52;;;1.38;;
25780;SDS011;13626;48.128;11.628;2023-12-20T05:38:25;2.00;;;1.42;;
25780;SDS011;13626;48.128;11.628;2023-12-20T05:40:53;2.28;;;1.52;;
25780;SDS011;13626;48.128;11.628;2023-12-20T05:43:20;2.85;;;1.70;;
25780;SDS011;13626;48.128;11.628;2023-12-20T05:45:47;2.33;;;1.90;;
25780;SDS011;13626;48.128;11.628;2023-12-20T05:48:14;1.80;;;1.42;;
25780;SDS011;13626;48.128;11.628;2023-12-20T05:50:42;2.38;;;1.58;;
25780;SDS011;13626;48.128;11.628;2023-12-20T05:53:09;2.70;;;1.48;;
25780;SDS011;13626;48.128;11.628;2023-12-20T05:55:36;2.05;;;1.40;;
25780;SDS011;13626;48.128;11.628;2023-12-20T05:58:03;2.47;;;1.75;;
25780;SDS011;13626;48.128;11.628;2023-12-20T06:00:31;2.00;;;1.45;;
25780;SDS011;13626;48.128;11.628;2023-12-20T06:02:58;2.35;;;1.30;;
25780;SDS011;13626;48.128;11.628;2023-12-20T06:05:26;1.80;;;1.40;;
25780;SDS011;13626;48.128;11.628;2023-12-20T06:07:53;3.42;;;1.50;;
25780;SDS011;13626;48.128;11.628;2023-12-20T06:10:23;2.08;;;1.60;;
25780;SDS011;13626;48.128;11.628;2023-12-20T06:12:50;3.88;;;1.58;;
25780;SDS011;13626;48.128;11.628;2023-12-20T06:15:17;1.75;;;1.60;;
25780;SDS011;13626;48.128;11.628;2023-12-20T06:17:45;2.30;;;1.52;;
25780;SDS011;13626;48.128;11.628;2023-12-20T06:20:14;2.05;;;1.60;;
25780;SDS011;13626;48.128;11.628;2023-12-20T06:22:41;2.00;;;1.60;;
25780;SDS011;13626;48.128;11.628;2023-12-20T06:25:08;1.75;;;1.40;;
25780;SDS011;13626;48.128;11.628;2023-12-20T06:27:36;2.13;;;1.58;;
25780;SDS011;13626;48.128;11.628;2023-12-20T06:30:04;1.90;;;1.45;;
25780;SDS011;13626;48.128;11.628;2023-12-20T06:32:31;2.08;;;1.65;;
25780;SDS011;13626;48.128;11.628;2023-12-20T06:34:58;3.10;;;1.60;;
25780;SDS011;13626;48.128;11.628;2023-12-20T06:37:26;2.38;;;1.60;;
25780;SDS011;13626;48.128;11.628;2023-12-20T06:39:53;2.30;;;1.60;;
25780;SDS011;13626;48.128;11.628;2023-12-20T06:42:20;2.20;;;1.60;;
25780;SDS011;13626;48.128;11.628;2023-12-20T06:44:48;1.90;;;1.55;;
25780;SDS011;13626;48.128;11.628;2023-12-20T06:47:15;2.15;;;1.70;;
25780;SDS011;13626;48.128;11.628;2023-12-20T06:49:42;3.47;;;2.00;;
25780;SDS011;13626;48.128;11.628;2023-12-20T06:52:09;3.08;;;1.60;;
25780;SDS011;13626;48.128;11.628;2023-12-20T06:54:37;2.70;;;1.58;;
25780;SDS011;13626;48.128;11.628;2023-12-20T06:57:04;3.53;;;1.58;;
25780;SDS011;13626;48.128;11.628;2023-12-20T06:59:31;2.60;;;1.30;;
25780;SDS011;13626;48.128;11.628;2023-12-20T07:01:58;1.98;;;1.20;;
25780;SDS011;13626;48.128;11.628;2023-12-20T07:04:26;2.65;;;1.40;;
25780;SDS011;13626;48.128;11.628;2023-12-20T07:06:53;3.30;;;1.50;;
25780;SDS011;13626;48.128;11.628;2023-12-20T07:09:24;1.80;;;1.10;;
25780;SDS011;13626;48.128;11.628;2023-12-20T07:11:52;1.25;;;1.15;;
25780;SDS011;13626;48.128;11.628;2023-12-20T07:14:19;1.92;;;0.93;;
25780;SDS011;13626;48.128;11.628;2023-12-20T07:16:46;0.77;;;0.75;;
25780;SDS011;13626;48.128;11.628;2023-12-20T07:19:13;1.05;;;0.88;;
25780;SDS011;13626;48.128;11.628;2023-12-20T07:21:41;1.27;;;0.98;;
25780;SDS011;13626;48.128;11.628;2023-12-20T07:24:08;0.50;;;0.50;;
25780;SDS011;13626;48.128;11.628;2023-12-20T07:26:35;2.42;;;1.00;;
25780;SDS011;13626;48.128;11.628;2023-12-20T07:29:04;1.20;;;0.90;;
25780;SDS011;13626;48.128;11.628;2023-12-20T07:31:31;1.05;;;0.85;;
25780;SDS011;13626;48.128;11.628;2023-12-20T07:33:58;0.80;;;0.77;;
25780;SDS011;13626;48.128;11.628;2023-12-20T07:36:27;0.73;;;0.68;;
25780;SDS011;13626;48.128;11.628;2023-12-20T07:38:54;0.82;;;0.80;;
25780;SDS011;13626;48.128;11.628;2023-12-20T07:41:23;2.15;;;0.85;;
25780;SDS011;13626;48.128;11.628;2023-12-20T07:43:53;1.73;;;1.10;;
25780;SDS011;13626;48.128;11.628;2023-12-20T07:46:20;0.82;;;0.80;;
25780;SDS011;13626;48.128;11.628;2023-12-20T07:48:51;1.08;;;0.98;;
25780;SDS011;13626;48.128;11.628;2023-12-20T07:51:25;1.35;;;1.00;;
25780;SDS011;13626;48.128;11.628;2023-12-20T07:54:22;0.90;;;0.90;;
25780;SDS011;13626;48.128;11.628;2023-12-20T07:57:17;0.68;;;0.68;;
25780;SDS011;13626;48.128;11.628;2023-12-20T08:00:07;1.75;;;0.70;;
25780;SDS011;13626;48.128;11.628;2023-12-20T08:02:35;1.00;;;0.80;;
25780;SDS011;13626;48.128;11.628;2023-12-20T08:05:16;0.70;;;0.68;;
25780;SDS011;13626;48.128;11.628;2023-12-20T08:07:52;1.65;;;0.82;;
25780;SDS011;13626;48.128;11.628;2023-12-20T08:10:55;0.73;;;0.70;;
25780;SDS011;13626;48.128;11.628;2023-12-20T08:13:39;1.55;;;0.77;;
25780;SDS011;13626;48.128;11.628;2023-12-20T08:16:32;0.80;;;0.80;;
25780;SDS011;13626;48.128;11.628;2023-12-20T08:19:17;0.88;;;0.70;;
25780;SDS011;13626;48.128;11.628;2023-12-20T08:24:36;1.45;;;0.93;;
25780;SDS011;13626;48.128;11.628;2023-12-20T08:27:13;2.20;;;0.90;;
25780;SDS011;13626;48.128;11.628;2023-12-20T08:29:43;0.52;;;0.52;;
25780;SDS011;13626;48.128;11.628;2023-12-20T08:32:26;1.02;;;0.90;;
25780;SDS011;13626;48.128;11.628;2023-12-20T08:34:57;1.00;;;0.90;;
25780;SDS011;13626;48.128;11.628;2023-12-20T08:37:31;0.77;;;0.70;;
25780;SDS011;13626;48.128;11.628;2023-12-20T08:40:08;2.05;;;0.82;;
25780;SDS011;13626;48.128;11.628;2023-12-20T08:42:44;1.05;;;0.93;;
25780;SDS011;13626;48.128;11.628;2023-12-20T08:45:30;0.90;;;0.90;;
25780;SDS011;13626;48.128;11.628;2023-12-20T08:48:00;2.38;;;1.00;;
25780;SDS011;13626;48.128;11.628;2023-12-20T08:50:37;1.73;;;0.90;;
25780;SDS011;13626;48.128;11.628;2023-12-20T08:53:09;1.17;;;0.70;;
25780;SDS011;13626;48.128;11.628;2023-12-20T08:55:37;0.75;;;0.75;;
25780;SDS011;13626;48.128;11.628;2023-12-20T08:58:04;0.80;;;0.80;;
25780;SDS011;13626;48.128;11.628;2023-12-20T09:00:33;0.85;;;0.85;;
25780;SDS011;13626;48.128;11.628;2023-12-20T09:03:01;4.00;;;0.80;;
25780;SDS011;13626;48.128;11.628;2023-12-20T09:05:29;1.05;;;0.73;;
25780;SDS011;13626;48.128;11.628;2023-12-20T09:07:57;2.70;;;0.90;;
25780;SDS011;13626;48.128;11.628;2023-12-20T09:10:25;1.70;;;0.88;;
25780;SDS011;13626;48.128;11.628;2023-12-20T09:13:04;0.90;;;0.82;;
25780;SDS011;13626;48.128;11.628;2023-12-20T09:15:35;1.05;;;0.80;;
25780;SDS011;13626;48.128;11.628;2023-12-20T09:18:07;0.43;;;0.40;;
25780;SDS011;13626;48.128;11.628;2023-12-20T09:20:34;1.23;;;0.70;;
25780;SDS011;13626;48.128;11.628;2023-12-20T09:23:04;0.73;;;0.73;;
25780;SDS011;13626;48.128;11.628;2023-12-20T09:25:31;0.98;;;0.77;;
25780;SDS011;13626;48.128;11.628;2023-12-20T09:27:59;0.60;;;0.60;;
25780;SDS011;13626;48.128;11.628;2023-12-20T09:30:26;2.38;;;0.70;;
25780;SDS011;13626;48.128;11.628;2023-12-20T09:32:54;1.10;;;0.80;;
25780;SDS011;13626;48.128;11.628;2023-12-20T09:35:22;0.70;;;0.68;;
25780;SDS011;13626;48.128;11.628;2023-12-20T09:37:50;0.75;;;0.75;;
25780;SDS011;13626;48.128;11.628;2023-12-20T09:40:18;1.35;;;0.80;;
25780;SDS011;13626;48.128;11.628;2023-12-20T09:43:04;1.25;;;0.70;;
25780;SDS011;13626;48.128;11.628;2023-12-20T09:45:32;0.82;;;0.50;;
25780;SDS011;13626;48.128;11.628;2023-12-20T09:48:00;0.52;;;0.52;;
25780;SDS011;13626;48.128;11.628;2023-12-20T09:50:30;2.22;;;0.52;;
25780;SDS011;13626;48.128;11.628;2023-12-20T09:53:00;2.38;;;0.93;;
25780;SDS011;13626;48.128;11.628;2023-12-20T09:55:28;0.68;;;0.50;;
25780;SDS011;13626;48.128;11.628;2023-12-20T09:57:57;0.80;;;0.70;;
25780;SDS011;13626;48.128;11.628;2023-12-20T10:00:25;1.08;;;0.98;;
25780;SDS011;13626;48.128;11.628;2023-12-20T10:05:26;0.82;;;0.80;;
25780;SDS011;13626;48.128;11.628;2023-12-20T10:07:53;0.80;;;0.80;;
25780;SDS011;13626;48.128;11.628;2023-12-20T10:10:21;1.05;;;0.70;;
25780;SDS011;13626;48.128;11.628;2023-12-20T10:15:30;1.15;;;1.05;;
25780;SDS011;13626;48.128;11.628;2023-12-20T10:17:58;1.65;;;1.08;;
25780;SDS011;13626;48.128;11.628;2023-12-20T10:20:28;0.80;;;0.73;;
25780;SDS011;13626;48.128;11.628;2023-12-20T10:22:56;1.77;;;0.80;;
25780;SDS011;13626;48.128;11.628;2023-12-20T10:25:23;0.80;;;0.80;;
25780;SDS011;13626;48.128;11.628;2023-12-20T10:28:11;1.33;;;1.00;;
25780;SDS011;13626;48.128;11.628;2023-12-20T10:30:39;1.50;;;1.05;;
25780;SDS011;13626;48.128;11.628;2023-12-20T10:33:08;2.40;;;1.10;;
25780;SDS011;13626;48.128;11.628;2023-12-20T10:35:37;0.82;;;0.82;;
25780;SDS011;13626;48.128;11.628;2023-12-20T10:38:10;0.80;;;0.80;;
25780;SDS011;13626;48.128;11.628;2023-12-20T10:40:38;1.10;;;1.00;;
25780;SDS011;13626;48.128;11.628;2023-12-20T10:43:05;1.35;;;1.05;;
25780;SDS011;13626;48.128;11.628;2023-12-20T10:45:33;1.75;;;1.30;;
25780;SDS011;13626;48.128;11.628;2023-12-20T10:48:01;6.82;;;1.23;;
25780;SDS011;13626;48.128;11.628;2023-12-20T10:50:33;1.77;;;1.15;;
25780;SDS011;13626;48.128;11.628;2023-12-20T10:53:05;0.85;;;0.73;;
25780;SDS011;13626;48.128;11.628;2023-12-20T10:55:33;0.93;;;0.88;;
25780;SDS011;13626;48.128;11.628;2023-12-20T10:58:08;1.08;;;0.98;;
25780;SDS011;13626;48.128;11.628;2023-12-20T11:00:39;1.27;;;0.85;;
25780;SDS011;13626;48.128;11.628;2023-12-20T11:03:14;1.20;;;0.80;;
25780;SDS011;13626;48.128;11.628;2023-12-20T11:05:51;1.73;;;1.02;;
25780;SDS011;13626;48.128;11.628;2023-12-20T11:10:56;0.80;;;0.70;;
25780;SDS011;13626;48.128;11.628;2023-12-20T11:13:26;0.80;;;0.73;;
25780;SDS011;13626;48.128;11.628;2023-12-20T11:15:56;0.80;;;0.80;;
25780;SDS011;13626;48.128;11.628;2023-12-20T11:18:29;1.08;;;1.00;;
25780;SDS011;13626;48.128;11.628;2023-12-20T11:21:00;2.95;;;1.00;;
25780;SDS011;13626;48.128;11.628;2023-12-20T11:23:29;1.08;;;0.98;;
25780;SDS011;13626;48.128;11.628;2023-12-20T11:25:58;1.02;;;0.90;;
25780;SDS011;13626;48.128;11.628;2023-12-20T11:28:26;1.75;;;0.90;;
25780;SDS011;13626;48.128;11.628;2023-12-20T11:30:54;1.25;;;0.98;;
25780;SDS011;13626;48.128;11.628;2023-12-20T11:33:24;1.40;;;0.95;;
25780;SDS011;13626;48.128;11.628;2023-12-20T11:35:56;1.40;;;1.27;;
25780;SDS011;13626;48.128;11.628;2023-12-20T11:38:23;2.47;;;1.13;;
25780;SDS011;13626;48.128;11.628;2023-12-20T11:40:51;1.80;;;1.55;;
25780;SDS011;13626;48.128;11.628;2023-12-20T11:43:39;1.52;;;1.23;;
25780;SDS011;13626;48.128;11.628;2023-12-20T11:46:09;2.05;;;1.20;;
25780;SDS011;13626;48.128;11.628;2023-12-20T11:48:37;1.35;;;1.10;;
25780;SDS011;13626;48.128;11.628;2023-12-20T11:51:10;1.88;;;1.23;;
25780;SDS011;13626;48.128;11.628;2023-12-20T11:53:43;5.53;;;1.70;;
25780;SDS011;13626;48.128;11.628;2023-12-20T11:56:46;2.08;;;1.63;;
25780;SDS011;13626;48.128;11.628;2023-12-20T11:59:29;3.72;;;1.75;;
25780;SDS011;13626;48.128;11.628;2023-12-20T12:02:03;3.17;;;1.45;;
25780;SDS011;13626;48.128;11.628;2023-12-20T12:04:32;2.63;;;1.35;;
25780;SDS011;13626;48.128;11.628;2023-12-20T12:07:00;2.75;;;1.80;;
25780;SDS011;13626;48.128;11.628;2023-12-20T12:09:27;2.38;;;1.30;;
25780;SDS011;13626;48.128;11.628;2023-12-20T12:11:54;1.98;;;1.20;;
25780;SDS011;13626;48.128;11.628;2023-12-20T12:14:27;2.35;;;1.65;;
25780;SDS011;13626;48.128;11.628;2023-12-20T12:16:55;3.28;;;1.20;;
25780;SDS011;13626;48.128;11.628;2023-12-20T12:19:23;1.20;;;1.10;;
25780;SDS011;13626;48.128;11.628;2023-12-20T12:22:07;1.20;;;1.10;;
25780;SDS011;13626;48.128;11.628;2023-12-20T12:25:26;2.72;;;1.13;;
25780;SDS011;13626;48.128;11.628;2023-12-20T12:27:34;3.22;;;1.08;;
25780;SDS011;13626;48.128;11.628;2023-12-20T12:30:03;1.10;;;0.93;;
25780;SDS011;13626;48.128;11.628;2023-12-20T12:32:31;1.80;;;1.25;;
25780;SDS011;13626;48.128;11.628;2023-12-20T12:35:00;1.05;;;0.98;;
25780;SDS011;13626;48.128;11.628;2023-12-20T12:37:53;1.77;;;1.40;;
25780;SDS011;13626;48.128;11.628;2023-12-20T12:40:27;2.97;;;1.20;;
25780;SDS011;13626;48.128;11.628;2023-12-20T12:42:57;1.35;;;1.10;;
25780;SDS011;13626;48.128;11.628;2023-12-20T12:45:24;1.35;;;1.15;;
25780;SDS011;13626;48.128;11.628;2023-12-20T12:47:53;1.13;;;0.98;;
25780;SDS011;13626;48.128;11.628;2023-12-20T12:50:24;3.30;;;1.48;;
25780;SDS011;13626;48.128;11.628;2023-12-20T12:52:51;1.35;;;1.05;;
25780;SDS011;13626;48.128;11.628;2023-12-20T12:55:20;2.08;;;1.20;;
25780;SDS011;13626;48.128;11.628;2023-12-20T12:57:47;1.23;;;1.13;;
25780;SDS011;13626;48.128;11.628;2023-12-20T13:00:16;3.22;;;1.20;;
25780;SDS011;13626;48.128;11.628;2023-12-20T13:02:43;1.40;;;1.23;;
25780;SDS011;13626;48.128;11.628;2023-12-20T13:05:12;1.20;;;1.10;;
25780;SDS011;13626;48.128;11.628;2023-12-20T13:07:55;2.85;;;1.05;;
25780;SDS011;13626;48.128;11.628;2023-12-20T13:10:26;2.50;;;1.27;;
25780;SDS011;13626;48.128;11.628;2023-12-20T13:12:53;2.17;;;1.10;;
25780;SDS011;13626;48.128;11.628;2023-12-20T13:15:21;3.17;;;1.40;;
25780;SDS011;13626;48.128;11.628;2023-12-20T13:17:48;1.40;;;1.30;;
25780;SDS011;13626;48.128;11.628;2023-12-20T13:20:16;3.42;;;1.50;;
25780;SDS011;13626;48.128;11.628;2023-12-20T13:22:43;2.22;;;1.33;;
25780;SDS011;13626;48.128;11.628;2023-12-20T13:25:11;1.85;;;1.27;;
25780;SDS011;13626;48.128;11.628;2023-12-20T13:27:38;1.33;;;1.20;;
25780;SDS011;13626;48.128;11.628;2023-12-20T13:30:12;2.53;;;1.55;;
25780;SDS011;13626;48.128;11.628;2023-12-20T13:32:40;1.40;;;1.30;;
25780;SDS011;13626;48.128;11.628;2023-12-20T13:35:08;2.42;;;1.17;;
25780;SDS011;13626;48.128;11.628;2023-12-20T13:37:36;1.73;;;1.63;;
25780;SDS011;13626;48.128;11.628;2023-12-20T13:40:07;2.05;;;1.30;;
25780;SDS011;13626;48.128;11.628;2023-12-20T13:42:34;1.80;;;1.30;;
25780;SDS011;13626;48.128;11.628;2023-12-20T13:45:05;2.90;;;1.63;;
25780;SDS011;13626;48.128;11.628;2023-12-20T13:47:33;2.17;;;1.60;;
25780;SDS011;13626;48.128;11.628;2023-12-20T13:50:02;1.98;;;1.33;;
25780;SDS011;13626;48.128;11.628;2023-12-20T13:52:29;3.13;;;1.63;;
25780;SDS011;13626;48.128;11.628;2023-12-20T13:54:57;3.17;;;1.73;;
25780;SDS011;13626;48.128;11.628;2023-12-20T13:57:27;2.25;;;1.50;;
25780;SDS011;13626;48.128;11.628;2023-12-20T14:00:15;3.63;;;1.75;;
25780;SDS011;13626;48.128;11.628;2023-12-20T14:02:43;5.72;;;2.15;;
25780;SDS011;13626;48.128;11.628;2023-12-20T14:05:10;1.92;;;1.58;;
25780;SDS011;13626;48.128;11.628;2023-12-20T14:07:38;3.67;;;1.70;;
25780;SDS011;13626;48.128;11.628;2023-12-20T14:10:06;2.90;;;1.90;;
25780;SDS011;13626;48.128;11.628;2023-12-20T14:12:34;3.33;;;1.70;;
25780;SDS011;13626;48.128;11.628;2023-12-20T14:15:02;3.88;;;1.60;;
25780;SDS011;13626;48.128;11.628;2023-12-20T14:17:30;3.00;;;1.70;;
25780;SDS011;13626;48.128;11.628;2023-12-20T14:19:58;2.95;;;1.60;;
25780;SDS011;13626;48.128;11.628;2023-12-20T14:22:25;4.70;;;2.33;;
25780;SDS011;13626;48.128;11.628;2023-12-20T14:24:56;3.92;;;1.80;;
25780;SDS011;13626;48.128;11.628;2023-12-20T14:27:25;2.10;;;1.75;;
25780;SDS011;13626;48.128;11.628;2023-12-20T14:29:56;5.53;;;1.65;;
25780;SDS011;13626;48.128;11.628;2023-12-20T14:32:24;4.35;;;1.80;;
25780;SDS011;13626;48.128;11.628;2023-12-20T14:34:54;2.17;;;1.83;;
25780;SDS011;13626;48.128;11.628;2023-12-20T14:37:22;3.60;;;1.83;;
25780;SDS011;13626;48.128;11.628;2023-12-20T14:39:49;2.97;;;1.77;;
25780;SDS011;13626;48.128;11.628;2023-12-20T14:42:17;4.45;;;1.83;;
25780;SDS011;13626;48.128;11.628;2023-12-20T14:44:44;4.10;;;1.90;;
25780;SDS011;13626;48.128;11.628;2023-12-20T14:47:11;3.25;;;1.50;;
25780;SDS011;13626;48.128;11.628;2023-12-20T14:49:41;4.57;;;1.83;;
25780;SDS011;13626;48.128;11.628;2023-12-20T14:52:09;4.03;;;1.92;;
25780;SDS011;13626;48.128;11.628;2023-12-20T14:54:38;5.22;;;2.03;;
25780;SDS011;13626;48.128;11.628;2023-12-20T14:57:08;3.15;;;1.40;;